Time;durP1;ratioP1;P1;durP2;ratioP2;P2;SDS_P1;SDS_P2;PMS_P1;PMS_P2;Temp;Humidity;BMP_temperature;BMP_pressure;BME280_temperature;BME280_humidity;BME280_pressure;Samples;Min_cycle;Max_cycle;Signal;HPM_P1;HPM_P2
2021/07/29 00:01:15;;;;;;;6.63;3.50;;;;;;;29.77;33.17;99410.63;5050595;28;20409;-74
2021/07/29 00:03:41;;;;;;;6.68;3.30;;;;;;;29.67;33.29;99386.34;5051476;28;20025;-75
2021/07/29 00:06:07;;;;;;;8.88;3.97;;;;;;;29.56;33.02;99374.09;5051651;28;20021;-76
2021/07/29 00:08:32;;;;;;;10.55;4.10;;;;;;;29.77;33.38;99412.53;5051288;28;20035;-77
2021/07/29 00:10:58;;;;;;;16.80;4.68;;;;;;;29.72;33.43;99422.41;5051503;28;20520;-73
2021/07/29 00:13:23;;;;;;;7.85;3.45;;;;;;;29.63;33.46;99412.56;5051519;28;20017;-74
2021/07/29 00:15:49;;;;;;;11.90;4.35;;;;;;;29.47;33.13;99389.53;5050022;28;20028;-76
2021/07/29 00:20:42;;;;;;;6.43;3.35;;;;;;;29.55;33.15;99407.84;5051224;28;20090;-73
2021/07/29 00:23:08;;;;;;;7.88;4.10;;;;;;;29.76;33.47;99429.97;5051049;28;20455;-74
2021/07/29 00:25:33;;;;;;;9.48;3.83;;;;;;;29.64;33.42;99412.25;5049783;28;20031;-73
2021/07/29 00:27:59;;;;;;;8.05;3.47;;;;;;;29.37;33.52;99396.78;5050995;28;20029;-78
2021/07/29 00:30:25;;;;;;;6.60;3.63;;;;;;;29.46;33.22;99412.41;5051088;28;20023;-75
2021/07/29 00:32:52;;;;;;;11.07;4.13;;;;;;;29.64;33.24;99441.38;5050860;28;20021;-73
2021/07/29 00:35:18;;;;;;;7.38;3.55;;;;;;;29.65;33.60;99437.53;5051040;28;20434;-76
2021/07/29 00:37:48;;;;;;;7.85;3.65;;;;;;;29.59;33.44;99434.13;5051113;28;20017;-76
2021/07/29 00:40:16;;;;;;;8.95;3.83;;;;;;;29.52;33.99;99428.31;5050973;28;20041;-76
2021/07/29 00:42:41;;;;;;;10.05;3.85;;;;;;;29.32;33.75;99402.31;5051059;28;20445;-74
2021/07/29 00:45:07;;;;;;;8.73;4.00;;;;;;;28.96;33.84;99360.66;5050794;28;20032;-76
2021/07/29 00:47:34;;;;;;;7.30;3.58;;;;;;;29.02;34.08;99371.16;5032958;28;20508;-77
2021/07/29 00:50:00;;;;;;;7.82;3.60;;;;;;;29.04;33.89;99379.81;5050956;28;20505;-76
2021/07/29 00:52:25;;;;;;;6.47;3.60;;;;;;;29.04;34.05;99382.53;5051230;28;20051;-75
2021/07/29 00:54:52;;;;;;;7.75;3.72;;;;;;;28.97;34.27;99376.66;5050767;28;20051;-76
2021/07/29 00:57:19;;;;;;;7.20;3.97;;;;;;;29.05;34.18;99380.63;5050714;28;20017;-76
2021/07/29 00:59:44;;;;;;;7.28;3.95;;;;;;;29.23;34.16;99409.59;5050918;28;20086;-74
2021/07/29 01:02:10;;;;;;;9.85;4.40;;;;;;;29.21;34.36;99413.72;5050772;28;20021;-74
2021/07/29 01:04:36;;;;;;;8.27;4.03;;;;;;;29.02;34.51;99382.03;5050821;28;20025;-75
2021/07/29 01:07:02;;;;;;;13.52;4.38;;;;;;;29.18;34.67;99406.97;5050881;28;20088;-77
2021/07/29 01:09:29;;;;;;;6.30;3.63;;;;;;;29.17;34.54;99413.53;5050940;28;20029;-76
2021/07/29 01:11:54;;;;;;;10.48;4.03;;;;;;;28.76;34.66;99343.63;5051379;28;20053;-75
2021/07/29 01:14:20;;;;;;;11.88;4.15;;;;;;;29.03;34.59;99391.00;5054651;28;20059;-77
2021/07/29 01:16:45;;;;;;;10.27;3.58;;;;;;;29.15;34.75;99402.16;5054645;28;20048;-75
2021/07/29 01:19:12;;;;;;;8.35;3.83;;;;;;;29.25;34.66;99417.44;5054779;28;20056;-75
2021/07/29 01:21:38;;;;;;;7.85;4.35;;;;;;;29.09;34.47;99401.44;5054234;28;20108;-76
2021/07/29 01:24:04;;;;;;;8.48;3.88;;;;;;;28.96;34.75;99388.66;5054418;28;20025;-74
2021/07/29 01:26:30;;;;;;;8.15;4.38;;;;;;;29.13;34.63;99414.44;5053356;28;20040;-77
2021/07/29 01:28:56;;;;;;;8.20;4.03;;;;;;;29.15;34.86;99423.09;5053062;28;20094;-73
2021/07/29 01:31:22;;;;;;;10.85;4.35;;;;;;;28.52;35.13;99342.22;5054417;28;20028;-76
2021/07/29 01:33:48;;;;;;;10.10;4.45;;;;;;;28.56;35.20;99371.19;5054163;28;20052;-74
2021/07/29 01:36:13;;;;;;;14.80;5.57;;;;;;;28.91;35.44;99426.00;5054119;28;20029;-76
2021/07/29 01:38:39;;;;;;;8.65;4.80;;;;;;;28.89;35.25;99422.78;5053981;28;20021;-74
2021/07/29 01:41:05;;;;;;;9.50;4.32;;;;;;;28.52;35.49;99356.63;5053967;28;20422;-76
2021/07/29 01:43:31;;;;;;;10.25;4.80;;;;;;;28.85;35.50;99416.34;5053944;28;20109;-76
2021/07/29 01:45:58;;;;;;;13.90;4.97;;;;;;;28.82;35.70;99416.91;5054026;28;20559;-75
2021/07/29 01:48:24;;;;;;;9.85;4.60;;;;;;;28.78;35.90;99422.13;5053995;28;20080;-76
2021/07/29 01:50:49;;;;;;;12.88;4.63;;;;;;;28.77;35.67;99429.47;5052956;28;20409;-76
2021/07/29 01:53:14;;;;;;;10.38;5.45;;;;;;;28.44;35.92;99370.88;5053990;28;20025;-73
2021/07/29 01:55:42;;;;;;;6.65;4.70;;;;;;;28.28;35.95;99345.94;5053765;28;20171;-76
2021/07/29 01:58:07;;;;;;;10.20;4.55;;;;;;;28.27;35.83;99355.19;5053630;28;20430;-77
2021/07/29 02:00:33;;;;;;;10.55;4.72;;;;;;;28.68;35.84;99414.19;5053889;28;20063;-74
2021/07/29 02:02:59;;;;;;;9.43;4.43;;;;;;;28.59;36.20;99418.69;5053638;28;20021;-74
2021/07/29 02:05:25;;;;;;;12.00;5.15;;;;;;;28.40;36.08;99383.47;5053369;28;20512;-77
2021/07/29 02:07:50;;;;;;;10.98;4.95;;;;;;;27.98;36.28;99325.50;5053311;28;20032;-75
2021/07/29 02:10:16;;;;;;;9.48;4.90;;;;;;;28.59;36.22;99424.94;5053511;28;20032;-76
2021/07/29 02:12:41;;;;;;;8.35;5.05;;;;;;;28.31;36.61;99388.78;5052229;28;20533;-75
2021/07/29 02:15:08;;;;;;;11.35;5.63;;;;;;;28.20;36.50;99392.72;5053637;28;20028;-75
2021/07/29 02:17:33;;;;;;;10.07;5.97;;;;;;;28.00;36.81;99374.84;5053310;28;20413;-73
2021/07/29 02:19:59;;;;;;;12.30;5.65;;;;;;;27.90;37.03;99388.59;5053280;28;20050;-76
2021/07/29 02:22:24;;;;;;;13.23;5.20;;;;;;;27.53;37.71;99365.00;5053333;28;20486;-76
2021/07/29 02:24:50;;;;;;;9.35;5.63;;;;;;;27.48;37.82;99398.38;5052350;28;20588;-74
2021/07/29 02:27:15;;;;;;;8.35;5.43;;;;;;;27.84;38.02;99447.56;5053256;28;20497;-76
2021/07/29 02:29:42;;;;;;;10.23;5.20;;;;;;;27.65;38.17;99411.50;5053405;28;20029;-76
2021/07/29 02:32:07;;;;;;;11.98;5.68;;;;;;;27.62;38.29;99406.66;5053117;28;20050;-76
2021/07/29 02:34:33;;;;;;;10.48;5.60;;;;;;;27.82;38.05;99440.81;5053296;28;20102;-75
2021/07/29 02:36:58;;;;;;;11.38;5.50;;;;;;;27.46;38.43;99399.78;5053133;28;20024;-75
2021/07/29 02:39:24;;;;;;;9.95;6.15;;;;;;;27.68;38.66;99429.09;5051911;28;20024;-75
2021/07/29 02:41:49;;;;;;;10.50;6.00;;;;;;;27.81;38.79;99461.72;5052997;28;20050;-75
2021/07/29 02:44:15;;;;;;;12.57;6.00;;;;;;;27.15;38.93;99364.16;5052802;28;20028;-76
2021/07/29 02:46:41;;;;;;;13.35;6.35;;;;;;;27.78;38.92;99461.50;5052618;28;20500;-75
2021/07/29 02:49:06;;;;;;;14.82;6.68;;;;;;;27.43;39.01;99392.22;5052819;28;20163;-76
2021/07/29 02:51:32;;;;;;;18.50;6.60;;;;;;;27.85;38.89;99462.75;5052645;28;20027;-75
2021/07/29 02:53:57;;;;;;;13.00;6.43;;;;;;;27.35;38.70;99379.31;5052798;28;20021;-76
2021/07/29 02:56:22;;;;;;;26.55;7.15;;;;;;;27.43;39.01;99403.88;5051196;28;20094;-76
2021/07/29 02:58:48;;;;;;;10.27;6.28;;;;;;;27.26;39.08;99391.91;5052559;28;20405;-76
2021/07/29 03:01:15;;;;;;;8.27;6.38;;;;;;;27.71;39.03;99474.63;5051139;28;20024;-73
2021/07/29 03:03:44;;;;;;;9.85;6.22;;;;;;;27.13;39.19;99388.81;5052699;28;20104;-77
2021/07/29 03:06:11;;;;;;;10.20;6.38;;;;;;;27.57;39.50;99466.38;5052589;28;20017;-75
2021/07/29 03:08:37;;;;;;;13.85;6.65;;;;;;;27.16;39.45;99420.78;5050998;28;20029;-75
2021/07/29 03:11:02;;;;;;;13.48;6.63;;;;;;;27.57;39.39;99473.69;5052275;28;20094;-75
2021/07/29 03:13:28;;;;;;;10.45;6.13;;;;;;;27.19;39.43;99425.63;5052272;28;20506;-74
2021/07/29 03:15:54;;;;;;;12.32;7.13;;;;;;;27.38;39.60;99462.78;5052222;28;20017;-75
2021/07/29 03:18:20;;;;;;;11.95;6.47;;;;;;;27.36;39.85;99473.94;5052312;28;20417;-75
2021/07/29 03:20:45;;;;;;;11.98;6.60;;;;;;;26.89;39.81;99401.56;5052276;28;20029;-74
2021/07/29 03:23:11;;;;;;;14.35;7.13;;;;;;;27.27;40.00;99462.13;5052356;28;20100;-74
2021/07/29 03:25:37;;;;;;;12.18;6.93;;;;;;;27.25;40.09;99460.78;5052154;28;20050;-74
2021/07/29 03:28:04;;;;;;;13.55;6.95;;;;;;;27.20;39.92;99462.47;5051976;28;20032;-74
2021/07/29 03:30:30;;;;;;;12.75;7.38;;;;;;;27.18;40.29;99461.13;5051791;28;20029;-74
2021/07/29 03:32:55;;;;;;;13.73;7.22;;;;;;;26.92;40.05;99437.00;5051703;28;20068;-75
2021/07/29 03:35:21;;;;;;;12.90;7.25;;;;;;;26.67;40.35;99393.13;5051809;28;20111;-74
2021/07/29 03:37:46;;;;;;;13.85;7.22;;;;;;;26.94;40.25;99431.31;5051931;28;20021;-75
2021/07/29 03:40:12;;;;;;;14.15;7.28;;;;;;;26.86;40.67;99431.94;5051889;28;20044;-74
2021/07/29 03:42:38;;;;;;;12.00;7.40;;;;;;;26.77;40.28;99409.28;5050470;28;20454;-74
2021/07/29 03:45:04;;;;;;;16.40;7.75;;;;;;;26.77;40.63;99420.94;5051346;28;20114;-73
2021/07/29 03:47:29;;;;;;;17.45;7.15;;;;;;;26.79;40.49;99437.69;5051334;28;20102;-74
2021/07/29 03:49:55;;;;;;;15.73;6.97;;;;;;;26.98;40.33;99458.66;5051567;28;20032;-75
2021/07/29 03:52:20;;;;;;;16.63;7.55;;;;;;;26.42;40.63;99384.16;5050260;28;20181;-75
2021/07/29 03:54:49;;;;;;;15.18;7.25;;;;;;;26.85;40.83;99462.84;5051668;28;20025;-75
2021/07/29 03:57:14;;;;;;;13.35;7.00;;;;;;;26.75;40.65;99450.16;5051659;28;20013;-75
2021/07/29 03:59:39;;;;;;;16.27;7.22;;;;;;;26.49;41.01;99414.41;5051485;28;20028;-75
2021/07/29 04:02:15;;;;;;;10.48;6.68;;;;;;;26.75;40.96;99463.72;5051623;28;20032;-75
2021/07/29 04:04:40;;;;;;;11.63;6.85;;;;;;;26.68;40.86;99463.25;5051366;28;20031;-75
2021/07/29 04:07:07;;;;;;;12.63;6.70;;;;;;;26.66;40.81;99448.38;5050090;28;20103;-76
2021/07/29 04:09:33;;;;;;;16.52;6.90;;;;;;;26.67;41.02;99460.81;5051414;28;20505;-75
2021/07/29 04:11:59;;;;;;;16.25;6.85;;;;;;;26.51;40.61;99438.50;5051119;28;20017;-76
2021/07/29 04:14:24;;;;;;;17.08;7.47;;;;;;;26.36;40.93;99423.19;5049923;28;20029;-75
2021/07/29 04:16:55;;;;;;;13.52;6.97;;;;;;;26.66;40.75;99464.63;5050149;28;20021;-75
2021/07/29 04:19:21;;;;;;;13.40;7.05;;;;;;;26.22;41.03;99403.28;5051390;28;20028;-75
2021/07/29 04:21:47;;;;;;;17.42;7.15;;;;;;;26.06;41.16;99372.03;5051291;28;20059;-75
2021/07/29 04:24:13;;;;;;;13.63;7.15;;;;;;;26.24;41.19;99415.44;5051569;28;20024;-75
2021/07/29 04:26:40;;;;;;;15.07;7.00;;;;;;;26.26;40.96;99409.72;5051045;28;20500;-74
2021/07/29 04:29:06;;;;;;;13.88;7.15;;;;;;;26.33;40.85;99420.25;5051157;28;20021;-76
2021/07/29 04:31:31;;;;;;;13.60;7.13;;;;;;;26.69;41.10;99453.22;5049923;28;20039;-73
2021/07/29 04:33:57;;;;;;;13.23;7.40;;;;;;;26.60;41.36;99458.44;5051241;28;20083;-74
2021/07/29 04:36:22;;;;;;;17.02;7.55;;;;;;;26.52;41.28;99454.47;5051291;28;20053;-75
2021/07/29 04:38:47;;;;;;;12.98;7.30;;;;;;;26.50;41.51;99447.72;5051277;28;20036;-75
2021/07/29 04:41:13;;;;;;;13.82;6.90;;;;;;;26.57;41.49;99449.00;5051112;28;20039;-76
2021/07/29 04:43:38;;;;;;;12.50;7.30;;;;;;;26.53;41.75;99428.19;5050949;28;20041;-76
2021/07/29 04:46:04;;;;;;;18.55;8.35;;;;;;;26.70;41.57;99454.84;5050953;28;20032;-74
2021/07/29 04:48:30;;;;;;;15.93;7.72;;;;;;;26.70;41.68;99452.13;5054096;28;20017;-76
2021/07/29 04:51:03;;;;;;;15.82;8.27;;;;;;;26.64;41.77;99432.41;5055054;28;20060;-74
2021/07/29 04:53:28;;;;;;;17.75;7.38;;;;;;;26.83;41.52;99452.28;5055090;28;20597;-75
2021/07/29 04:55:54;;;;;;;16.92;7.72;;;;;;;27.00;41.46;99465.41;5054917;28;20056;-75
2021/07/29 04:58:19;;;;;;;13.00;7.45;;;;;;;26.68;41.44;99387.41;5054790;28;20379;-76
2021/07/29 05:00:45;;;;;;;14.43;7.25;;;;;;;27.13;41.48;99456.59;5053579;28;20103;-75
2021/07/29 05:03:10;;;;;;;11.40;7.07;;;;;;;27.05;41.38;99432.84;5054814;28;20028;-74
2021/07/29 05:05:35;;;;;;;17.08;7.80;;;;;;;26.93;40.94;99408.00;5054630;28;20033;-75
2021/07/29 05:08:01;;;;;;;12.88;7.22;;;;;;;27.28;41.27;99457.50;5054479;28;20029;-75
2021/07/29 05:10:26;;;;;;;17.00;7.15;;;;;;;27.35;41.15;99472.31;5054435;28;20029;-75
2021/07/29 05:12:52;;;;;;;19.58;6.95;;;;;;;27.12;40.74;99418.94;5053463;28;20217;-76
2021/07/29 05:15:17;;;;;;;13.27;7.10;;;;;;;27.30;40.44;99447.97;5054603;28;20108;-76
2021/07/29 05:17:42;;;;;;;15.55;7.05;;;;;;;27.45;40.45;99464.06;5054296;28;20047;-75
2021/07/29 05:20:10;;;;;;;12.73;6.60;;;;;;;27.23;40.48;99418.50;5054268;28;20482;-76
2021/07/29 05:22:35;;;;;;;19.00;6.97;;;;;;;27.41;40.35;99441.31;5052616;28;20490;-75
2021/07/29 05:25:01;;;;;;;11.10;6.50;;;;;;;27.58;40.13;99462.56;5053329;28;20115;-76
2021/07/29 05:27:26;;;;;;;15.73;8.13;;;;;;;27.11;40.02;99382.88;5053149;28;20106;-75
2021/07/29 05:29:51;;;;;;;19.63;10.65;;;;;;;27.69;40.60;99466.78;5054256;28;20037;-75
2021/07/29 05:32:17;;;;;;;20.40;7.93;;;;;;;27.72;40.45;99479.75;5041001;28;20112;-75
2021/07/29 05:34:42;;;;;;;12.52;7.22;;;;;;;27.78;40.33;99481.28;5035135;28;20033;-74
2021/07/29 05:37:07;;;;;;;11.95;6.28;;;;;;;27.49;40.19;99429.81;5039403;28;20032;-75
2021/07/29 05:39:33;;;;;;;13.50;6.28;;;;;;;27.70;39.81;99440.44;5038523;28;20028;-75
2021/07/29 05:41:59;;;;;;;11.02;6.05;;;;;;;27.99;39.64;99468.25;5035192;28;20520;-75
2021/07/29 05:44:24;;;;;;;21.85;7.20;;;;;;;27.72;39.52;99421.97;5033966;28;20112;-76
2021/07/29 05:46:50;;;;;;;17.50;7.28;;;;;;;27.96;39.31;99466.13;5039114;28;20482;-75
2021/07/29 05:49:15;;;;;;;19.45;7.13;;;;;;;28.08;39.53;99473.81;5041204;28;20027;-75
2021/07/29 05:51:41;;;;;;;22.17;7.68;;;;;;;27.54;39.39;99380.97;5035804;28;20504;-76
2021/07/29 05:54:06;;;;;;;14.20;7.80;;;;;;;28.17;39.14;99475.56;5037414;28;20056;-77
2021/07/29 05:56:31;;;;;;;11.73;8.18;;;;;;;27.81;39.09;99396.59;5053501;28;20029;-76
2021/07/29 05:58:57;;;;;;;25.70;17.08;;;;;;;28.42;39.00;99479.03;5056986;28;20118;-75
2021/07/29 06:01:22;;;;;;;21.65;11.10;;;;;;;28.48;38.30;99473.19;5072219;28;20025;-75
2021/07/29 06:03:48;;;;;;;19.40;8.00;;;;;;;28.40;38.11;99462.22;5059326;28;20028;-75
2021/07/29 06:06:13;;;;;;;13.32;9.27;;;;;;;28.08;37.90;99386.94;5073587;28;20028;-76
2021/07/29 06:08:38;;;;;;;15.43;10.13;;;;;;;28.35;37.88;99432.44;5073514;28;20477;-76
2021/07/29 06:11:04;;;;;;;16.55;11.30;;;;;;;28.31;37.75;99421.34;5062533;28;20082;-76
2021/07/29 06:13:31;;;;;;;13.80;6.93;;;;;;;28.73;37.34;99471.16;5053317;28;20028;-75
2021/07/29 06:16:00;;;;;;;9.73;7.13;;;;;;;28.45;36.91;99418.66;5052010;28;20394;-76
2021/07/29 06:18:25;;;;;;;15.27;8.13;;;;;;;28.84;37.29;99464.44;5053129;28;20024;-75
2021/07/29 06:20:50;;;;;;;15.75;11.30;;;;;;;28.91;37.50;99466.75;5042423;28;20525;-75
2021/07/29 06:23:16;;;;;;;13.50;8.35;;;;;;;28.87;37.43;99444.00;5036421;28;20025;-75
2021/07/29 06:25:41;;;;;;;14.05;7.60;;;;;;;28.99;36.98;99458.75;5035004;28;20556;-74
2021/07/29 06:28:13;;;;;;;13.98;6.18;;;;;;;28.80;37.20;99425.34;5040311;28;20021;-75
2021/07/29 06:30:38;;;;;;;12.52;6.43;;;;;;;29.15;36.58;99461.97;5037879;28;20060;-75
2021/07/29 06:33:04;;;;;;;18.52;8.50;;;;;;;28.93;36.66;99421.06;5037106;28;20110;-75
2021/07/29 06:35:29;;;;;;;10.35;7.30;;;;;;;29.21;36.86;99455.31;5032470;28;20038;-75
2021/07/29 06:37:56;;;;;;;17.42;8.45;;;;;;;29.31;36.57;99454.31;5032358;28;20040;-75
2021/07/29 06:40:22;;;;;;;12.68;7.70;;;;;;;28.98;36.73;99405.47;5036596;28;20094;-75
2021/07/29 06:42:47;;;;;;;24.40;8.90;;;;;;;29.23;36.75;99428.63;5041650;28;20037;-75
2021/07/29 06:45:13;;;;;;;15.10;7.57;;;;;;;29.22;36.91;99418.88;5031446;28;20056;-74
2021/07/29 06:47:39;;;;;;;16.55;6.65;;;;;;;29.58;36.03;99465.16;5032608;28;20520;-75
2021/07/29 06:50:05;;;;;;;17.40;8.00;;;;;;;29.53;36.17;99457.13;5032531;28;20033;-75
2021/07/29 06:52:31;;;;;;;14.50;6.35;;;;;;;29.59;36.33;99455.91;5032717;28;20418;-75
2021/07/29 06:54:56;;;;;;;17.42;6.80;;;;;;;29.70;36.10;99468.16;5032462;28;20087;-75
2021/07/29 06:57:22;;;;;;;17.00;6.38;;;;;;;29.69;35.53;99452.16;5031234;28;20475;-75
2021/07/29 06:59:47;;;;;;;16.83;6.85;;;;;;;29.14;35.38;99384.22;5032475;28;20487;-75
2021/07/29 07:02:13;;;;;;;15.48;6.50;;;;;;;29.42;35.47;99393.13;5032611;28;20021;-76
2021/07/29 07:04:38;;;;;;;21.25;7.82;;;;;;;29.05;35.54;99345.28;5032791;28;20036;-75
2021/07/29 07:07:03;;;;;;;18.58;8.48;;;;;;;29.37;35.60;99387.81;5031005;28;20124;-75
2021/07/29 07:09:30;;;;;;;19.60;8.70;;;;;;;29.88;35.28;99463.72;5032164;28;20040;-73
2021/07/29 07:11:56;;;;;;;64.43;10.32;;;;;;;29.63;35.23;99415.28;5032315;28;20384;-76
2021/07/29 07:14:21;;;;;;;21.58;11.65;;;;;;;30.13;35.13;99470.50;5032355;28;20025;-76
2021/07/29 07:16:47;;;;;;;17.95;7.50;;;;;;;30.24;34.87;99468.34;5032316;28;20459;-74
2021/07/29 07:19:12;;;;;;;20.33;8.60;;;;;;;30.20;34.85;99443.66;5032025;28;20059;-76
2021/07/29 07:21:38;;;;;;;18.70;8.05;;;;;;;30.12;34.27;99429.97;5032438;28;20410;-76
2021/07/29 07:24:06;;;;;;;17.63;6.32;;;;;;;30.21;34.32;99439.00;5032388;28;20044;-76
2021/07/29 07:26:31;;;;;;;13.55;5.93;;;;;;;30.17;34.22;99427.13;5032228;28;20032;-73
2021/07/29 07:28:57;;;;;;;9.77;7.03;;;;;;;30.24;34.10;99428.28;5031883;28;20029;-75
2021/07/29 07:31:22;;;;;;;15.38;6.50;;;;;;;30.24;33.89;99422.03;5031942;28;20030;-75
2021/07/29 07:33:48;;;;;;;17.23;6.78;;;;;;;30.63;33.69;99459.50;5031993;28;20029;-74
2021/07/29 07:36:16;;;;;;;14.63;5.80;;;;;;;30.76;33.41;99444.19;5031953;28;20512;-76
2021/07/29 07:38:42;;;;;;;12.05;5.93;;;;;;;30.65;32.85;99417.19;5030676;28;20079;-75
2021/07/29 07:41:08;;;;;;;12.45;6.72;;;;;;;30.89;32.36;99433.16;5032193;28;20029;-75
2021/07/29 07:43:34;;;;;;;14.98;6.47;;;;;;;30.91;32.69;99438.31;5031820;28;20466;-75
2021/07/29 07:46:01;;;;;;;15.93;11.13;;;;;;;31.01;32.77;99434.50;5031617;28;20060;-76
2021/07/29 07:48:27;;;;;;;12.18;6.07;;;;;;;31.11;31.83;99436.94;5031505;28;20133;-74
2021/07/29 07:50:53;;;;;;;18.85;7.65;;;;;;;31.04;32.11;99420.22;5031483;28;20032;-75
2021/07/29 07:53:30;;;;;;;10.70;6.55;;;;;;;31.21;31.68;99450.31;5031938;28;20045;-75
2021/07/29 07:55:56;;;;;;;10.23;6.38;;;;;;;31.31;31.93;99438.31;5031782;28;20040;-75
2021/07/29 07:58:22;;;;;;;8.50;5.35;;;;;;;30.96;31.04;99384.44;5031430;28;20490;-75
2021/07/29 08:00:48;;;;;;;9.40;5.75;;;;;;;31.41;30.79;99447.00;5031729;28;20035;-75
2021/07/29 08:03:14;;;;;;;13.25;6.00;;;;;;;31.16;30.91;99399.44;5031678;28;20513;-76
2021/07/29 08:05:40;;;;;;;15.32;7.13;;;;;;;31.14;30.57;99390.72;5031900;28;20029;-75
2021/07/29 08:08:08;;;;;;;14.10;7.20;;;;;;;31.67;30.39;99444.31;5031623;28;20029;-75
2021/07/29 08:10:34;;;;;;;17.27;10.13;;;;;;;31.76;30.12;99438.88;5032598;28;20036;-75
2021/07/29 08:13:00;;;;;;;11.65;5.88;;;;;;;31.78;30.11;99434.72;5034052;28;20079;-75
2021/07/29 08:15:25;;;;;;;17.00;7.63;;;;;;;31.49;30.06;99397.09;5029855;28;20033;-75
2021/07/29 08:17:51;;;;;;;15.93;5.85;;;;;;;31.87;29.70;99432.78;5031231;28;20025;-75
2021/07/29 08:20:18;;;;;;;11.50;5.75;;;;;;;31.66;29.77;99390.03;5031080;28;20017;-75
2021/07/29 08:22:44;;;;;;;12.88;7.05;;;;;;;32.00;29.62;99439.22;5030425;28;20026;-76
2021/07/29 08:25:09;;;;;;;11.70;5.53;;;;;;;31.86;29.47;99387.50;5031260;28;20025;-75
2021/07/29 08:27:35;;;;;;;11.43;6.90;;;;;;;32.20;29.40;99424.91;5031037;28;20029;-75
2021/07/29 08:30:02;;;;;;;17.73;6.50;;;;;;;32.23;29.52;99410.59;5031269;28;20468;-76
2021/07/29 08:32:28;;;;;;;22.30;8.60;;;;;;;32.37;29.58;99415.09;5031548;28;20030;-77
2021/07/29 08:34:54;;;;;;;20.33;7.68;;;;;;;32.28;29.37;99381.53;5029958;28;20053;-74
2021/07/29 08:37:20;;;;;;;17.23;9.57;;;;;;;32.60;29.35;99423.88;5029884;28;20029;-75
2021/07/29 08:39:45;;;;;;;23.85;7.78;;;;;;;32.55;29.35;99398.31;5031281;28;20025;-75
2021/07/29 08:42:11;;;;;;;18.90;10.02;;;;;;;32.82;29.22;99412.75;5031654;28;20033;-76
2021/07/29 08:44:37;;;;;;;14.40;7.15;;;;;;;32.95;29.23;99408.97;5031218;28;20049;-76
2021/07/29 08:47:09;;;;;;;13.50;7.00;;;;;;;33.09;28.92;99409.53;5031000;28;20057;-76
2021/07/29 08:49:38;;;;;;;13.18;7.90;;;;;;;32.95;28.84;99361.69;5037612;28;20082;-77
2021/07/29 08:52:04;;;;;;;15.05;7.15;;;;;;;33.19;28.30;99381.00;5043105;28;20047;-74
2021/07/29 08:54:29;;;;;;;13.45;7.05;;;;;;;33.19;28.00;99375.53;5040729;28;20398;-75
2021/07/29 08:56:54;;;;;;;12.68;6.90;;;;;;;33.22;27.67;99363.09;5055222;28;20043;-76
2021/07/29 08:59:20;;;;;;;11.15;6.50;;;;;;;33.15;27.91;99344.47;5055188;28;20025;-73
2021/07/29 09:01:50;;;;;;;17.73;6.75;;;;;;;33.55;27.98;99383.19;5035074;28;20057;-75
2021/07/29 09:04:16;;;;;;;20.57;6.87;;;;;;;33.65;28.05;99384.72;5030363;28;20457;-75
2021/07/29 09:06:57;;;;;;;20.02;9.00;;;;;;;33.83;27.88;99383.47;5041857;28;20087;-75
2021/07/29 09:09:40;;;;;;;24.05;8.65;;;;;;;33.96;27.75;99373.34;5032411;28;20029;-75
2021/07/29 09:12:15;;;;;;;17.23;8.50;;;;;;;33.84;27.50;99344.00;5033763;28;20048;-75
2021/07/29 09:14:40;;;;;;;13.98;6.05;;;;;;;34.21;27.33;99383.28;5045138;28;20037;-76
2021/07/29 09:17:08;;;;;;;14.20;7.25;;;;;;;34.04;27.26;99339.59;5053826;28;20023;-75
2021/07/29 09:19:44;;;;;;;20.00;7.53;;;;;;;34.50;26.90;99378.78;5050124;28;20111;-77
2021/07/29 09:22:28;;;;;;;19.88;8.95;;;;;;;34.68;26.61;99380.16;5051454;28;20585;-76
2021/07/29 09:25:02;;;;;;;13.20;7.43;;;;;;;34.85;26.37;99374.50;5041322;28;20505;-81
2021/07/29 09:27:37;;;;;;;17.33;7.93;;;;;;;34.98;26.38;99369.81;5056666;28;20032;-81
2021/07/29 09:30:15;;;;;;;18.98;7.68;;;;;;;35.15;26.20;99377.81;5034384;28;20068;-81
2021/07/29 09:32:52;;;;;;;13.45;9.20;;;;;;;35.29;26.31;99375.47;5031751;28;20544;-81
2021/07/29 09:35:37;;;;;;;17.08;7.45;;;;;;;35.47;25.83;99373.28;5033743;28;20045;-80
2021/07/29 09:38:10;;;;;;;10.43;7.18;;;;;;;35.57;25.42;99367.31;5034042;28;20498;-80
2021/07/29 09:40:53;;;;;;;14.10;7.03;;;;;;;35.71;25.02;99357.91;5032685;28;20029;-80
2021/07/29 09:43:24;;;;;;;12.05;7.50;;;;;;;35.89;25.08;99360.03;5032540;28;20028;-81
2021/07/29 09:45:55;;;;;;;13.73;8.73;;;;;;;35.88;24.92;99322.69;5066532;28;20020;-80
2021/07/29 09:48:22;;;;;;;18.67;7.60;;;;;;;35.91;24.97;99291.78;5054864;28;20035;-82
2021/07/29 09:50:49;;;;;;;20.45;10.45;;;;;;;35.95;24.90;99286.38;5043727;28;20067;-79
2021/07/29 09:53:15;;;;;;;15.38;7.18;;;;;;;36.37;24.29;99333.41;5049457;28;20064;-82
2021/07/29 09:55:40;;;;;;;13.90;6.43;;;;;;;36.48;24.16;99328.19;5050323;28;20139;-81
2021/07/29 09:58:06;;;;;;;14.13;7.20;;;;;;;36.76;24.15;99339.91;5046974;28;20048;-81
2021/07/29 10:00:34;;;;;;;15.23;6.80;;;;;;;36.83;24.03;99306.25;5051577;28;20481;-81
2021/07/29 10:03:02;;;;;;;20.13;8.52;;;;;;;37.03;24.09;99323.59;5038983;28;20451;-81
2021/07/29 10:05:38;;;;;;;16.45;6.95;;;;;;;37.12;23.82;99329.69;5033422;28;20104;-80
2021/07/29 10:08:07;;;;;;;11.63;6.65;;;;;;;37.21;23.67;99330.31;5043932;28;20082;-79
2021/07/29 10:10:32;;;;;;;15.13;6.68;;;;;;;37.42;23.26;99327.25;5040371;28;20033;-81
2021/07/29 10:12:58;;;;;;;12.32;6.35;;;;;;;37.47;23.21;99315.94;5040777;28;20528;-81
2021/07/29 10:15:37;;;;;;;13.50;7.75;;;;;;;37.38;22.62;99299.63;5033443;28;20029;-81
2021/07/29 10:18:03;;;;;;;13.35;7.75;;;;;;;37.40;22.75;99282.75;5034331;28;20036;-81
2021/07/29 10:20:32;;;;;;;17.05;6.50;;;;;;;37.43;22.63;99271.78;5032644;28;20025;-81
2021/07/29 10:23:13;;;;;;;13.68;7.32;;;;;;;37.91;22.77;99319.19;5036758;28;20083;-81
2021/07/29 10:26:06;;;;;;;17.60;7.97;;;;;;;38.14;22.81;99319.22;5053224;28;20027;-80
2021/07/29 10:28:38;;;;;;;13.25;9.07;;;;;;;38.26;22.60;99316.28;5041383;28;20561;-82
2021/07/29 10:31:05;;;;;;;12.70;7.28;;;;;;;38.35;22.26;99308.56;5045029;28;20049;-79
2021/07/29 10:33:31;;;;;;;15.18;10.20;;;;;;;38.29;22.02;99278.91;5046974;28;20159;-82
2021/07/29 10:35:58;;;;;;;15.75;9.52;;;;;;;38.50;21.96;99275.69;5052806;28;20060;-81
2021/07/29 10:38:39;;;;;;;11.75;8.43;;;;;;;38.92;21.80;99311.44;5048938;28;20021;-81
2021/07/29 10:41:10;;;;;;;13.20;9.25;;;;;;;39.05;21.97;99312.84;5033450;28;20486;-81
2021/07/29 10:43:35;;;;;;;18.83;10.63;;;;;;;39.22;21.47;99305.94;5032963;28;20520;-81
2021/07/29 10:46:01;;;;;;;21.13;11.05;;;;;;;39.01;20.99;99276.84;5045115;28;20096;-81
2021/07/29 10:51:23;;;;;;;17.88;7.82;;;;;;;39.56;20.93;99304.03;5041156;28;20028;-79
2021/07/29 10:53:50;;;;;;;17.20;7.30;;;;;;;39.31;20.84;99256.72;5051972;28;20508;-82
2021/07/29 10:56:19;;;;;;;15.45;7.60;;;;;;;39.71;20.18;99298.28;5043078;28;20482;-81
2021/07/29 10:58:47;;;;;;;9.50;6.32;;;;;;;39.76;20.56;99293.59;5032861;28;20047;-83
2021/07/29 11:01:15;;;;;;;16.05;7.15;;;;;;;39.86;20.46;99290.13;5034089;28;20026;-81
2021/07/29 11:04:02;;;;;;;13.43;6.10;;;;;;;39.99;19.96;99288.69;5031440;28;20056;-82
2021/07/29 11:06:38;;;;;;;11.98;6.13;;;;;;;39.97;20.05;99263.41;5039129;28;20025;-79
2021/07/29 11:09:16;;;;;;;16.25;6.18;;;;;;;39.97;20.06;99238.53;5045336;28;20444;-80
2021/07/29 11:11:43;;;;;;;12.98;6.20;;;;;;;40.30;19.73;99276.34;5037555;28;20044;-79
2021/07/29 11:14:10;;;;;;;9.95;6.28;;;;;;;40.28;19.64;99281.47;5056924;28;20028;-80
2021/07/29 11:16:37;;;;;;;13.23;6.30;;;;;;;40.44;19.54;99279.25;5067614;28;20036;-80
2021/07/29 11:19:04;;;;;;;13.13;5.93;;;;;;;40.54;19.51;99277.72;5040408;28;20116;-80
2021/07/29 11:21:30;;;;;;;8.02;6.22;;;;;;;40.67;19.29;99270.69;5037373;28;20037;-80
2021/07/29 11:23:56;;;;;;;12.20;6.22;;;;;;;40.71;19.43;99273.47;5050610;28;21560;-78
2021/07/29 11:26:22;;;;;;;12.00;6.68;;;;;;;40.88;19.06;99272.84;5035089;28;20087;-79
2021/07/29 11:29:07;;;;;;;12.55;6.47;;;;;;;41.04;18.18;99261.44;5040736;28;20060;-80
2021/07/29 11:31:36;;;;;;;10.88;6.22;;;;;;;41.10;18.62;99262.66;5050372;28;20115;-78